createdAt,value
2018-10-19T00:02:07.278Z,21.13
2018-10-19T00:04:34.447Z,22.20
2018-10-19T00:07:01.587Z,21.63
2018-10-19T00:09:28.752Z,21.57
2018-10-19T00:11:55.926Z,20.80
2018-10-19T00:14:23.081Z,21.50
2018-10-19T00:16:50.234Z,20.30
2018-10-19T00:19:17.366Z,20.47
2018-10-19T00:21:44.521Z,20.53
2018-10-19T00:24:11.642Z,20.83
2018-10-19T00:26:38.781Z,20.20
2018-10-19T00:29:05.952Z,20.67
2018-10-19T00:31:33.042Z,21.97
2018-10-19T00:34:00.171Z,20.90
2018-10-19T00:36:27.309Z,20.33
2018-10-19T00:38:54.474Z,21.30
2018-10-19T00:41:21.623Z,20.77
2018-10-19T00:43:49.017Z,21.03
2018-10-19T00:46:16.184Z,20.57
2018-10-19T00:48:43.297Z,20.57
2018-10-19T00:51:10.608Z,20.00
2018-10-19T00:53:37.685Z,20.23
2018-10-19T00:56:04.867Z,20.90
2018-10-19T00:58:32.038Z,20.50
2018-10-19T01:00:59.273Z,19.37
2018-10-19T01:03:26.429Z,20.30
2018-10-19T01:05:53.591Z,20.90
2018-10-19T01:08:20.767Z,21.17
2018-10-19T01:10:47.913Z,20.90
2018-10-19T01:13:15.096Z,20.30
2018-10-19T01:15:42.236Z,21.27
2018-10-19T01:18:09.433Z,22.20
2018-10-19T01:20:36.616Z,19.33
2018-10-19T01:23:04.229Z,17.20
2018-10-19T01:25:31.366Z,17.00
2018-10-19T01:27:58.496Z,17.50
2018-10-19T01:30:25.746Z,16.57
2018-10-19T01:32:52.969Z,18.60
2018-10-19T01:35:20.095Z,18.27
2018-10-19T01:37:47.290Z,18.40
2018-10-19T01:40:14.468Z,19.70
2018-10-19T01:42:41.653Z,20.93
2018-10-19T01:45:10.744Z,20.60
2018-10-19T01:47:38.330Z,19.70
2018-10-19T01:50:05.765Z,16.90
2018-10-19T01:52:32.909Z,17.00
2018-10-19T01:55:00.062Z,17.33
2018-10-19T01:57:27.255Z,17.50
2018-10-19T01:59:54.430Z,16.90
2018-10-19T02:02:21.690Z,17.00
2018-10-19T02:04:48.926Z,17.57
2018-10-19T02:07:16.049Z,17.90
2018-10-19T02:09:43.195Z,15.57
2018-10-19T02:12:10.346Z,15.40
2018-10-19T02:14:38.077Z,16.23
2018-10-19T02:17:05.996Z,15.43
2018-10-19T02:19:33.096Z,16.10
2018-10-19T02:22:00.198Z,16.10
2018-10-19T02:24:27.351Z,15.13
2018-10-19T02:26:54.587Z,15.07
2018-10-19T02:29:21.675Z,16.97
2018-10-19T02:31:48.836Z,15.90
2018-10-19T02:34:15.996Z,16.13
2018-10-19T02:36:43.662Z,14.93
2018-10-19T02:39:10.879Z,15.17
2018-10-19T02:41:38.018Z,15.53
2018-10-19T02:44:05.313Z,15.40
2018-10-19T02:46:32.488Z,15.00
2018-10-19T02:48:59.640Z,15.77
2018-10-19T02:51:26.817Z,15.83
2018-10-19T02:53:53.962Z,14.87
2018-10-19T02:56:21.132Z,16.20
2018-10-19T02:58:48.444Z,15.10
2018-10-19T03:01:15.984Z,14.80
2018-10-19T03:03:43.182Z,16.00
2018-10-19T03:06:10.333Z,14.93
2018-10-19T03:08:37.517Z,16.80
2018-10-19T03:11:05.056Z,15.83
2018-10-19T03:13:32.158Z,15.67
2018-10-19T03:15:59.285Z,15.10
2018-10-19T03:18:26.471Z,14.93
2018-10-19T03:20:53.669Z,15.50
2018-10-19T03:23:20.806Z,14.90
2018-10-19T03:25:47.923Z,14.77
2018-10-19T03:28:15.115Z,14.97
2018-10-19T03:30:42.276Z,13.70
2018-10-19T03:33:09.437Z,14.77
2018-10-19T03:35:36.607Z,14.20
2018-10-19T03:38:04.154Z,13.43
2018-10-19T03:40:31.303Z,14.63
2018-10-19T03:42:58.489Z,14.20
2018-10-19T03:45:25.690Z,14.73
2018-10-19T03:47:52.865Z,13.73
2018-10-19T03:50:20.008Z,15.57
2018-10-19T03:52:47.170Z,14.10
2018-10-19T03:55:14.345Z,14.60
2018-10-19T03:57:41.491Z,15.40
2018-10-19T04:00:08.654Z,13.20
2018-10-19T04:02:35.813Z,13.10
2018-10-19T04:05:03.018Z,12.40
2018-10-19T04:07:30.225Z,14.20
2018-10-19T04:09:57.448Z,12.70
2018-10-19T04:12:24.716Z,13.27
2018-10-19T04:14:51.851Z,14.20
2018-10-19T04:17:19.002Z,12.47
2018-10-19T04:19:46.137Z,12.93
2018-10-19T04:22:13.290Z,12.50
2018-10-19T04:24:40.429Z,13.13
2018-10-19T04:27:07.828Z,12.10
2018-10-19T04:29:34.888Z,12.20
2018-10-19T04:32:02.024Z,12.70
2018-10-19T04:34:29.342Z,12.97
2018-10-19T04:37:01.872Z,12.60
2018-10-19T04:39:29.065Z,12.23
2018-10-19T04:41:56.363Z,12.90
2018-10-19T04:44:23.613Z,12.57
2018-10-19T04:46:50.766Z,12.10
2018-10-19T04:49:17.922Z,12.83
2018-10-19T04:51:45.114Z,12.93
2018-10-19T04:54:12.373Z,11.63
2018-10-19T04:56:39.551Z,12.30
2018-10-19T04:59:06.857Z,13.40
2018-10-19T05:01:34.039Z,11.93
2018-10-19T05:04:01.182Z,12.97
2018-10-19T05:06:28.573Z,11.80
2018-10-19T05:08:55.726Z,13.30
2018-10-19T05:11:22.893Z,11.77
2018-10-19T05:13:50.071Z,12.53
2018-10-19T05:16:17.422Z,12.37
2018-10-19T05:18:44.606Z,12.23
2018-10-19T05:21:11.858Z,12.37
2018-10-19T05:23:39.335Z,13.23
2018-10-19T05:26:06.691Z,12.90
2018-10-19T05:28:34.066Z,13.23
2018-10-19T05:31:01.270Z,13.00
2018-10-19T05:33:28.707Z,13.57
2018-10-19T05:35:56.112Z,13.67
2018-10-19T05:38:23.533Z,13.10
2018-10-19T05:40:50.686Z,13.90
2018-10-19T05:43:17.895Z,13.63
2018-10-19T05:45:45.249Z,13.10
2018-10-19T05:48:12.499Z,14.17
2018-10-19T05:50:39.664Z,12.47
2018-10-19T05:53:06.873Z,13.30
2018-10-19T05:55:34.016Z,12.57
2018-10-19T05:58:01.274Z,11.93
2018-10-19T06:00:28.511Z,12.17
2018-10-19T06:02:55.662Z,11.67
2018-10-19T06:05:22.826Z,11.50
2018-10-19T06:07:50.099Z,12.20
2018-10-19T06:10:18.240Z,12.50
2018-10-19T06:12:45.472Z,12.33
2018-10-19T06:15:12.877Z,13.40
2018-10-19T06:17:40.092Z,11.73
2018-10-19T06:20:07.414Z,12.10
2018-10-19T06:22:34.512Z,11.63
2018-10-19T06:25:01.751Z,12.07
2018-10-19T06:27:28.977Z,12.80
2018-10-19T06:29:57.236Z,12.27
2018-10-19T06:32:24.460Z,11.57
2018-10-19T06:34:51.626Z,12.50
2018-10-19T06:37:18.854Z,11.60
2018-10-19T06:39:46.299Z,12.37
2018-10-19T06:42:13.562Z,11.50
2018-10-19T06:44:40.814Z,13.47
2018-10-19T06:47:08.215Z,13.47
2018-10-19T06:49:35.470Z,12.20
2018-10-19T06:52:02.782Z,14.00
2018-10-19T06:54:30.240Z,13.60
2018-10-19T06:56:57.618Z,13.10
2018-10-19T06:59:24.904Z,14.07
2018-10-19T07:01:52.226Z,13.00
2018-10-19T07:04:19.371Z,14.47
2018-10-19T07:06:47.207Z,14.23
2018-10-19T07:09:14.606Z,14.13
2018-10-19T07:11:41.895Z,14.57
2018-10-19T07:14:09.151Z,15.03
2018-10-19T07:16:36.331Z,15.80
2018-10-19T07:23:56.307Z,14.63
2018-10-19T07:26:23.534Z,13.63
2018-10-19T07:28:50.773Z,14.50
2018-10-19T07:31:18.984Z,15.03
2018-10-19T07:33:46.153Z,14.57
2018-10-19T07:36:13.397Z,15.73
2018-10-19T07:38:40.634Z,15.27
2018-10-19T07:41:07.971Z,16.70
2018-10-19T07:43:35.186Z,16.20
2018-10-19T07:46:02.541Z,17.80
2018-10-19T07:48:29.869Z,17.97
2018-10-19T07:50:57.104Z,20.57
2018-10-19T07:53:24.864Z,19.30
2018-10-19T07:55:53.133Z,19.00
2018-10-19T07:58:20.586Z,19.80
2018-10-19T08:00:49.030Z,23.07
2018-10-19T08:03:16.294Z,20.23
2018-10-19T08:05:43.563Z,21.73
2018-10-19T08:08:11.191Z,21.63
2018-10-19T08:10:39.256Z,19.63
2018-10-19T08:13:06.755Z,21.00
2018-10-19T08:15:34.011Z,21.50
2018-10-19T08:18:01.259Z,21.97
2018-10-19T08:20:28.546Z,20.90
2018-10-19T08:22:55.851Z,20.90
2018-10-19T08:25:23.234Z,21.03
2018-10-19T08:27:50.462Z,22.13
2018-10-19T08:30:17.663Z,20.70
2018-10-19T08:32:45.793Z,21.77
2018-10-19T08:35:13.175Z,21.67
2018-10-19T08:37:40.530Z,22.90
2018-10-19T08:40:07.675Z,21.63
2018-10-19T08:42:35.127Z,21.60
2018-10-19T08:45:02.400Z,22.67
2018-10-19T08:47:29.715Z,20.43
2018-10-19T08:49:56.859Z,22.03
2018-10-19T08:52:24.019Z,23.20
2018-10-19T08:54:51.741Z,22.73
2018-10-19T08:57:18.918Z,22.03
2018-10-19T08:59:46.919Z,23.85
2018-10-19T09:02:14.199Z,22.53
2018-10-19T09:04:41.509Z,20.97
2018-10-19T09:07:08.742Z,23.57
2018-10-19T09:09:35.966Z,21.30
2018-10-19T09:12:03.338Z,21.20
2018-10-19T09:14:41.961Z,22.20
2018-10-19T09:17:09.240Z,21.80
2018-10-19T09:19:36.491Z,22.57
2018-10-19T09:22:03.676Z,21.83
2018-10-19T09:24:30.969Z,21.37
2018-10-19T09:26:58.370Z,22.10
2018-10-19T09:29:25.625Z,23.63
2018-10-19T09:31:52.865Z,23.23
2018-10-19T09:34:20.135Z,22.87
2018-10-19T09:36:47.701Z,24.80
2018-10-19T09:39:15.722Z,22.20
2018-10-19T09:41:43.103Z,22.33
2018-10-19T09:44:10.349Z,24.90
2018-10-19T09:46:39.325Z,24.70
2018-10-19T09:49:07.857Z,24.53
2018-10-19T09:51:35.510Z,24.47
2018-10-19T09:54:02.775Z,24.57
2018-10-19T09:56:29.966Z,24.50
2018-10-19T09:58:57.216Z,27.17
2018-10-19T10:01:28.361Z,26.90
2018-10-19T10:03:55.663Z,23.40
2018-10-19T10:06:23.127Z,25.00
2018-10-19T10:08:50.356Z,24.60
2018-10-19T10:11:17.777Z,24.80
2018-10-19T10:13:45.399Z,26.10
2018-10-19T10:16:12.663Z,26.73
2018-10-19T10:18:40.205Z,23.87
2018-10-19T10:21:07.891Z,24.73
2018-10-19T10:23:35.099Z,23.50
2018-10-19T10:26:02.231Z,23.13
2018-10-19T10:28:29.621Z,24.00
2018-10-19T10:30:56.996Z,24.57
2018-10-19T10:33:24.350Z,24.67
2018-10-19T10:35:51.662Z,23.77
2018-10-19T10:38:18.993Z,26.00
2018-10-19T10:40:46.658Z,26.07
2018-10-19T10:43:14.095Z,25.03
2018-10-19T10:45:41.267Z,23.73
2018-10-19T10:48:08.617Z,25.10
2018-10-19T10:50:35.939Z,26.73
2018-10-19T10:53:03.204Z,25.57
2018-10-19T10:55:30.457Z,25.70
2018-10-19T10:57:57.820Z,26.47
2018-10-19T11:00:25.077Z,25.17
2018-10-19T11:02:53.106Z,26.50
2018-10-19T11:05:20.384Z,27.43
2018-10-19T11:07:49.776Z,25.27
2018-10-19T11:10:17.106Z,24.40
2018-10-19T11:12:44.171Z,24.63
2018-10-19T11:15:12.646Z,26.57
2018-10-19T11:17:40.804Z,24.20
2018-10-19T11:20:08.050Z,26.63
2018-10-19T11:22:35.370Z,27.67
2018-10-19T11:25:02.671Z,25.03
2018-10-19T11:27:29.935Z,25.80
2018-10-19T11:29:57.433Z,28.20
2018-10-19T11:32:24.630Z,27.90
2018-10-19T11:34:51.834Z,26.37
2018-10-19T11:37:19.176Z,27.60
2018-10-19T11:39:58.383Z,29.13
2018-10-19T11:42:26.843Z,28.80
2018-10-19T11:44:54.232Z,28.37
2018-10-19T11:47:21.960Z,28.80
2018-10-19T11:49:49.146Z,28.57
2018-10-19T11:52:16.403Z,29.60
2018-10-19T11:54:43.645Z,27.97
2018-10-19T11:57:11.528Z,27.93
2018-10-19T11:59:38.630Z,25.40
2018-10-19T12:02:06.665Z,25.60
2018-10-19T12:04:34.308Z,26.27
2018-10-19T12:07:01.812Z,31.33
2018-10-19T12:09:28.975Z,29.80
2018-10-19T12:11:56.195Z,29.97
2018-10-19T12:14:23.371Z,31.90
2018-10-19T12:16:51.131Z,30.10
2018-10-19T12:19:22.608Z,31.20
2018-10-19T12:21:50.126Z,28.77
2018-10-19T12:24:17.750Z,27.73
2018-10-19T12:26:45.045Z,31.47
2018-10-19T12:29:12.251Z,26.53
2018-10-19T12:31:40.563Z,29.17
2018-10-19T12:34:08.980Z,28.30
2018-10-19T12:36:36.578Z,27.27
2018-10-19T12:39:06.654Z,28.07
2018-10-19T12:41:34.352Z,27.00
2018-10-19T12:44:01.550Z,27.00
2018-10-19T12:46:42.181Z,28.17
2018-10-19T12:49:11.286Z,26.70
2018-10-19T12:51:39.232Z,30.57
2018-10-19T12:54:13.309Z,29.50
2018-10-19T12:56:41.113Z,28.67
2018-10-19T12:59:08.453Z,31.60
2018-10-19T13:01:35.917Z,27.90
2018-10-19T13:04:03.458Z,29.67
2018-10-19T13:06:30.797Z,27.37
2018-10-19T13:08:58.168Z,28.50
2018-10-19T13:11:25.831Z,28.87
2018-10-19T13:13:53.311Z,28.27
2018-10-19T13:16:20.872Z,27.20
2018-10-19T13:18:48.158Z,29.63
2018-10-19T13:21:15.438Z,28.00
2018-10-19T13:23:42.733Z,31.17
2018-10-19T13:26:10.257Z,30.13
2018-10-19T13:28:37.524Z,29.00
2018-10-19T13:31:04.859Z,29.90
2018-10-19T13:33:33.177Z,29.33
2018-10-19T13:36:00.458Z,28.00
2018-10-19T13:38:27.641Z,29.20
2018-10-19T13:40:55.416Z,30.37
2018-10-19T13:43:23.040Z,29.87
2018-10-19T13:45:50.758Z,28.27
2018-10-19T13:48:18.509Z,28.77
2018-10-19T13:50:46.232Z,27.50
2018-10-19T13:53:13.905Z,29.13
2018-10-19T13:55:41.099Z,30.87
2018-10-19T13:58:08.386Z,30.30
2018-10-19T14:00:35.753Z,28.90
2018-10-19T14:03:03.104Z,28.77
2018-10-19T14:05:30.661Z,30.37
2018-10-19T14:07:57.852Z,28.97
2018-10-19T14:10:25.208Z,28.57
2018-10-19T14:12:52.483Z,27.53
2018-10-19T14:15:19.844Z,27.40
2018-10-19T14:17:47.210Z,27.13
2018-10-19T14:20:14.824Z,28.40
2018-10-19T14:22:42.087Z,27.83
2018-10-19T14:25:11.489Z,27.80
2018-10-19T14:27:40.014Z,27.93
2018-10-19T14:30:10.350Z,32.37
2018-10-19T14:32:39.277Z,26.80
2018-10-19T14:35:06.863Z,26.50
2018-10-19T14:37:34.869Z,26.50
2018-10-19T14:40:02.112Z,27.43
2018-10-19T14:42:29.485Z,26.57
2018-10-19T14:44:56.811Z,28.27
2018-10-19T14:47:24.136Z,26.47
2018-10-19T14:49:51.606Z,27.00
2018-10-19T14:52:18.880Z,28.50
2018-10-19T14:54:46.297Z,27.70
2018-10-19T14:57:13.767Z,25.43
2018-10-19T14:59:45.090Z,26.50
2018-10-19T15:02:12.278Z,26.10
2018-10-19T15:04:39.466Z,28.23
2018-10-19T15:07:06.622Z,29.43
2018-10-19T15:09:33.832Z,27.10
2018-10-19T15:12:01.015Z,26.37
2018-10-19T15:14:29.131Z,24.30
2018-10-19T15:16:56.409Z,26.67
2018-10-19T15:19:25.399Z,27.07
2018-10-19T15:21:52.706Z,27.00
2018-10-19T15:24:19.998Z,26.70
2018-10-19T15:26:47.253Z,27.50
2018-10-19T15:29:15.493Z,27.10
2018-10-19T15:31:42.862Z,26.40
2018-10-19T15:34:10.128Z,28.50
2018-10-19T15:36:37.538Z,25.30
2018-10-19T15:39:07.638Z,26.10
2018-10-19T15:41:34.915Z,26.07
2018-10-19T15:44:02.144Z,25.13
2018-10-19T15:46:29.465Z,24.90
2018-10-19T15:48:56.634Z,24.87
2018-10-19T15:51:23.837Z,26.63
2018-10-19T15:53:51.381Z,25.73
2018-10-19T15:56:18.696Z,27.90
2018-10-19T15:58:45.980Z,25.70
2018-10-19T16:01:13.252Z,27.00
2018-10-19T16:03:40.715Z,27.00
2018-10-19T16:06:08.257Z,26.97
2018-10-19T16:08:35.665Z,26.27
2018-10-19T16:11:02.939Z,27.93
2018-10-19T16:13:30.615Z,28.80
2018-10-19T16:15:58.346Z,28.50
2018-10-19T16:18:28.532Z,27.23
2018-10-19T16:20:56.234Z,28.73
2018-10-19T16:23:24.709Z,29.93
2018-10-19T16:25:55.370Z,26.87
2018-10-19T16:28:24.508Z,27.80
2018-10-19T16:30:51.965Z,28.33
2018-10-19T16:33:19.778Z,26.83
2018-10-19T16:35:48.711Z,27.83
2018-10-19T16:38:16.230Z,27.97
2018-10-19T16:40:43.523Z,26.67
2018-10-19T16:43:10.882Z,26.50
2018-10-19T16:45:38.859Z,26.37
2018-10-19T16:48:06.953Z,25.60
2018-10-19T16:50:34.222Z,23.37
2018-10-19T16:53:01.573Z,23.63
2018-10-19T16:55:28.728Z,23.30
2018-10-19T16:57:56.017Z,27.17
2018-10-19T17:00:23.304Z,24.47
2018-10-19T17:02:50.708Z,24.70
2018-10-19T17:05:17.942Z,26.40
2018-10-19T17:07:45.148Z,25.93
2018-10-19T17:10:12.416Z,24.50
2018-10-19T17:12:40.676Z,23.77
2018-10-19T17:15:09.760Z,24.47
2018-10-19T17:17:37.480Z,23.90
2018-10-19T17:20:05.075Z,25.90
2018-10-19T17:22:32.421Z,27.57
2018-10-19T17:25:00.241Z,31.90
2018-10-19T17:27:27.701Z,31.93
2018-10-19T17:29:55.211Z,31.70
2018-10-19T17:32:22.773Z,29.33
2018-10-19T17:34:50.428Z,28.63
2018-10-19T17:37:17.714Z,30.10
2018-10-19T17:39:46.525Z,27.60
2018-10-19T17:42:13.773Z,26.97
2018-10-19T17:44:41.465Z,28.33
2018-10-19T17:47:09.658Z,28.70
2018-10-19T17:50:03.624Z,28.57
2018-10-19T17:52:31.132Z,28.27
2018-10-19T17:54:58.432Z,27.03
2018-10-19T17:57:26.143Z,29.57
2018-10-19T17:59:53.362Z,26.77
2018-10-19T18:02:20.504Z,27.37
2018-10-19T18:04:48.106Z,27.47
2018-10-19T18:07:18.371Z,26.30
2018-10-19T18:09:47.006Z,26.33
2018-10-19T18:12:14.346Z,24.93
2018-10-19T18:14:41.612Z,25.10
2018-10-19T18:17:08.924Z,23.90
2018-10-19T18:19:36.255Z,26.60
2018-10-19T18:24:39.358Z,32.57
2018-10-19T18:27:06.673Z,36.50
2018-10-19T18:29:33.826Z,39.87
2018-10-19T18:32:01.125Z,42.27
2018-10-19T18:34:28.363Z,43.00
2018-10-19T18:36:55.642Z,39.47
2018-10-19T18:39:22.962Z,42.77
2018-10-19T18:41:50.293Z,46.73
2018-10-19T18:44:17.598Z,44.37
2018-10-19T18:46:44.766Z,46.60
2018-10-19T18:49:12.091Z,43.13
2018-10-19T18:51:39.527Z,36.90
2018-10-19T18:54:07.024Z,31.40
2018-10-19T18:56:34.466Z,29.43
2018-10-19T18:59:01.819Z,33.17
2018-10-19T19:01:29.242Z,39.30
2018-10-19T19:03:56.670Z,40.57
2018-10-19T19:06:23.995Z,39.00
2018-10-19T19:08:51.503Z,31.70
2018-10-19T19:11:19.004Z,28.30
2018-10-19T19:13:48.329Z,26.20
2018-10-19T19:16:21.478Z,29.30
2018-10-19T19:18:48.852Z,26.67
2018-10-19T19:21:16.179Z,30.93
2018-10-19T19:23:49.073Z,43.00
2018-10-19T19:26:20.130Z,35.20
2018-10-19T19:31:26.006Z,28.23
2018-10-19T19:33:59.163Z,25.00
2018-10-19T19:36:26.504Z,24.90
2018-10-19T19:38:53.957Z,27.50
2018-10-19T19:41:27.066Z,33.83
2018-10-19T19:43:54.382Z,36.90
2018-10-19T19:46:21.671Z,40.33
2018-10-19T19:48:54.523Z,39.73
2018-10-19T19:51:21.670Z,39.60
2018-10-19T19:53:49.128Z,48.90
2018-10-19T19:56:16.425Z,54.00
2018-10-19T19:58:44.569Z,52.90
2018-10-19T20:01:11.999Z,55.77
2018-10-19T20:03:47.762Z,58.27
2018-10-19T20:06:15.222Z,56.13
2018-10-19T20:08:42.419Z,52.20
2018-10-19T20:11:09.703Z,57.53
2018-10-19T20:13:36.871Z,58.33
2018-10-19T20:16:04.384Z,55.43
2018-10-19T20:18:31.603Z,49.47
2018-10-19T20:20:58.782Z,47.87
2018-10-19T20:23:26.042Z,43.03
2018-10-19T20:25:53.488Z,56.03
2018-10-19T20:28:20.904Z,57.80
2018-10-19T20:30:48.418Z,59.90
2018-10-19T20:33:15.654Z,59.00
2018-10-19T20:35:42.868Z,60.13
2018-10-19T20:38:10.321Z,53.27
2018-10-19T20:40:37.539Z,39.00
2018-10-19T20:43:05.471Z,33.97
2018-10-19T20:45:32.778Z,31.60
2018-10-19T20:48:00.089Z,32.07
2018-10-19T20:50:27.288Z,32.70
2018-10-19T20:52:54.692Z,34.50
2018-10-19T20:55:22.017Z,31.27
2018-10-19T20:57:49.210Z,27.30
2018-10-19T21:00:17.536Z,26.70
2018-10-19T21:02:45.266Z,32.53
2018-10-19T21:05:12.576Z,33.27
2018-10-19T21:07:39.794Z,34.60
2018-10-19T21:10:09.461Z,30.43
2018-10-19T21:12:37.323Z,27.30
2018-10-19T21:15:05.788Z,24.23
2018-10-19T21:17:33.103Z,25.07
2018-10-19T21:20:00.309Z,24.20
2018-10-19T21:22:27.542Z,23.60
2018-10-19T21:24:54.756Z,24.23
2018-10-19T21:27:22.057Z,25.37
2018-10-19T21:29:49.851Z,24.07
2018-10-19T21:32:17.111Z,26.00
2018-10-19T21:34:44.227Z,24.90
2018-10-19T21:37:11.641Z,24.40
2018-10-19T21:39:38.838Z,25.93
2018-10-19T21:42:06.095Z,26.47
2018-10-19T21:44:33.410Z,23.77
2018-10-19T21:47:00.755Z,22.63
2018-10-19T21:49:27.945Z,22.17
2018-10-19T21:51:55.357Z,21.97
2018-10-19T21:54:22.726Z,21.37
2018-10-19T21:56:49.869Z,22.50
2018-10-19T21:59:17.186Z,21.70
2018-10-19T22:01:44.214Z,21.50
2018-10-19T22:04:11.442Z,22.77
2018-10-19T22:06:38.599Z,23.00
2018-10-19T22:09:09.890Z,22.77
2018-10-19T22:11:37.813Z,23.47
2018-10-19T22:14:04.962Z,22.70
2018-10-19T22:16:32.272Z,24.00
2018-10-19T22:18:59.460Z,24.37
2018-10-19T22:21:26.613Z,26.23
2018-10-19T22:23:53.814Z,23.40
2018-10-19T22:26:21.033Z,23.63
2018-10-19T22:28:48.221Z,22.37
2018-10-19T22:31:15.426Z,22.27
2018-10-19T22:33:42.577Z,21.87
2018-10-19T22:36:09.846Z,21.93
2018-10-19T22:38:37.074Z,21.60
2018-10-19T22:41:04.804Z,20.93
2018-10-19T22:43:32.060Z,23.33
2018-10-19T22:45:59.286Z,21.60
2018-10-19T22:48:26.434Z,22.23
2018-10-19T22:50:53.631Z,22.60
2018-10-19T22:53:20.781Z,20.63
2018-10-19T22:55:47.990Z,21.00
2018-10-19T22:58:15.240Z,21.70
2018-10-19T23:00:42.383Z,22.20
2018-10-19T23:03:09.589Z,20.97
2018-10-19T23:05:36.799Z,20.93
2018-10-19T23:08:04.509Z,21.73
2018-10-19T23:10:31.701Z,22.17
2018-10-19T23:12:59.014Z,21.20
2018-10-19T23:15:26.152Z,21.90
2018-10-19T23:17:53.310Z,20.67
2018-10-19T23:20:20.622Z,22.50
2018-10-19T23:22:47.854Z,20.87
2018-10-19T23:25:15.103Z,19.63
2018-10-19T23:27:42.407Z,21.13
2018-10-19T23:30:09.549Z,21.53
2018-10-19T23:32:36.758Z,21.60
2018-10-19T23:35:05.359Z,20.30
2018-10-19T23:37:32.566Z,20.17
2018-10-19T23:39:59.808Z,21.27
2018-10-19T23:42:27.074Z,20.13
2018-10-19T23:44:54.309Z,20.70
2018-10-19T23:47:21.454Z,20.37
2018-10-19T23:49:48.635Z,20.00
2018-10-19T23:52:15.825Z,19.90
2018-10-19T23:54:43.007Z,22.00
2018-10-19T23:57:10.269Z,20.73
2018-10-19T23:59:37.570Z,19.87
